Time;durP1;ratioP1;P1;durP2;ratioP2;P2;SDS_P1;SDS_P2;PMS_P1;PMS_P2;Temp;Humidity;BMP_temperature;BMP_pressure;BME280_temperature;BME280_humidity;BME280_pressure;Samples;Min_cycle;Max_cycle;Signal;HPM_P1;HPM_P2
2021/07/11 00:00:02;;;;;;;29.63;13.80;;;15.90;99.90;;;;;;5092737;28;20278;-75
2021/07/11 00:02:32;;;;;;;30.60;14.50;;;15.90;99.90;;;;;;5095616;28;20218;-74
2021/07/11 00:05:01;;;;;;;25.43;13.77;;;15.90;99.90;;;;;;5102910;28;20191;-74
2021/07/11 00:07:29;;;;;;;29.60;14.33;;;15.90;99.90;;;;;;5079824;28;20200;-75
2021/07/11 00:09:57;;;;;;;26.93;13.23;;;15.90;99.90;;;;;;5099193;28;20206;-74
2021/07/11 00:12:24;;;;;;;25.20;12.57;;;15.90;99.90;;;;;;5087669;28;20532;-74
2021/07/11 00:14:51;;;;;;;25.43;12.40;;;15.80;99.90;;;;;;5102622;28;20523;-74
2021/07/11 00:17:18;;;;;;;25.40;12.53;;;15.70;99.90;;;;;;5096605;28;20373;-74
2021/07/11 00:19:45;;;;;;;35.97;13.97;;;15.80;99.90;;;;;;5082109;28;20284;-74
2021/07/11 00:22:13;;;;;;;29.10;14.37;;;15.90;99.90;;;;;;5092622;28;20289;-75
2021/07/11 00:24:40;;;;;;;32.77;15.17;;;15.90;99.90;;;;;;5097084;28;20294;-75
2021/07/11 00:27:08;;;;;;;33.87;14.43;;;15.90;99.90;;;;;;5080268;28;20219;-74
2021/07/11 00:29:36;;;;;;;34.17;14.83;;;15.80;99.90;;;;;;5081675;28;20199;-75
2021/07/11 00:32:03;;;;;;;32.10;14.67;;;15.80;99.90;;;;;;5092162;28;20209;-74
2021/07/11 00:34:30;;;;;;;27.30;14.27;;;15.80;99.90;;;;;;5096530;28;20195;-74
2021/07/11 00:36:57;;;;;;;29.77;14.53;;;15.80;99.90;;;;;;5096731;28;20282;-74
2021/07/11 00:39:25;;;;;;;33.93;15.00;;;15.80;99.90;;;;;;5096625;28;20198;-75
2021/07/11 00:41:54;;;;;;;30.03;14.57;;;15.80;99.90;;;;;;5096647;28;20281;-74
2021/07/11 00:44:21;;;;;;;28.10;14.40;;;15.80;99.90;;;;;;5080670;28;20219;-75
2021/07/11 00:46:48;;;;;;;28.90;14.13;;;15.80;99.90;;;;;;5075863;28;20626;-75
2021/07/11 00:49:17;;;;;;;27.40;15.60;;;15.80;99.90;;;;;;5089946;28;20551;-74
2021/07/11 00:51:44;;;;;;;27.97;15.37;;;15.90;99.90;;;;;;5096681;28;20240;-74
2021/07/11 00:54:11;;;;;;;30.57;15.50;;;15.80;99.90;;;;;;5087668;28;20199;-75
2021/07/11 00:56:44;;;;;;;26.50;15.27;;;15.70;99.90;;;;;;5114782;28;20201;-75
2021/07/11 00:59:10;;;;;;;26.67;15.40;;;15.60;99.90;;;;;;5116889;28;20213;-78
2021/07/11 01:01:40;;;;;;;33.67;15.97;;;15.60;99.90;;;;;;5093800;28;20203;-79
2021/07/11 01:04:11;;;;;;;25.07;14.90;;;15.50;99.90;;;;;;5095009;28;20752;-79
2021/07/11 01:06:41;;;;;;;27.93;14.73;;;15.50;99.90;;;;;;5098661;28;20289;-79
2021/07/11 01:09:14;;;;;;;33.20;15.70;;;15.50;99.90;;;;;;5076056;28;20238;-77
2021/07/11 01:11:47;;;;;;;26.87;14.67;;;15.50;99.90;;;;;;5092181;28;20245;-78
2021/07/11 01:14:16;;;;;;;30.17;15.33;;;15.50;99.90;;;;;;5096008;28;20558;-75
2021/07/11 01:16:47;;;;;;;25.27;15.37;;;15.50;99.90;;;;;;5096276;28;20289;-75
2021/07/11 01:19:25;;;;;;;28.67;15.57;;;15.40;99.90;;;;;;5095884;28;20199;-75
2021/07/11 01:21:59;;;;;;;27.87;15.07;;;15.30;99.90;;;;;;5096108;28;20294;-74
2021/07/11 01:24:32;;;;;;;29.70;16.43;;;15.30;99.90;;;;;;5095875;28;20309;-75
2021/07/11 01:27:03;;;;;;;29.23;15.40;;;15.30;99.90;;;;;;5085673;28;20211;-75
2021/07/11 01:29:30;;;;;;;30.43;16.40;;;15.10;99.90;;;;;;5078975;28;20287;-74
2021/07/11 01:31:59;;;;;;;26.53;15.37;;;15.10;99.90;;;;;;5107327;28;20571;-75
2021/07/11 01:34:27;;;;;;;25.03;15.30;;;15.00;99.90;;;;;;5095566;28;20539;-75
2021/07/11 01:36:55;;;;;;;30.13;16.27;;;15.00;99.90;;;;;;5075964;28;20199;-75
2021/07/11 01:39:22;;;;;;;27.47;15.07;;;15.00;99.90;;;;;;5078900;28;20186;-73
2021/07/11 01:41:50;;;;;;;28.30;14.60;;;14.90;99.90;;;;;;5095054;28;20662;-75
2021/07/11 01:44:20;;;;;;;26.17;15.80;;;14.90;99.90;;;;;;5095342;28;20308;-75
2021/07/11 01:46:48;;;;;;;28.87;15.43;;;15.00;99.90;;;;;;5095619;28;20194;-75
2021/07/11 01:49:16;;;;;;;26.67;15.43;;;15.00;99.90;;;;;;5095420;28;20282;-75
2021/07/11 01:51:45;;;;;;;26.40;16.33;;;14.90;99.90;;;;;;5104688;28;20299;-75
2021/07/11 01:54:12;;;;;;;30.40;15.73;;;14.80;99.90;;;;;;5115780;28;20739;-75
2021/07/11 01:56:40;;;;;;;25.80;15.43;;;14.80;99.90;;;;;;5115679;28;20194;-75
2021/07/11 01:59:09;;;;;;;25.73;14.40;;;14.80;99.90;;;;;;5115808;28;20197;-73
2021/07/11 02:01:37;;;;;;;29.23;15.70;;;14.70;99.90;;;;;;5115346;28;20662;-74
2021/07/11 02:04:04;;;;;;;31.83;15.87;;;14.80;99.90;;;;;;5115406;28;20314;-75
2021/07/11 02:06:35;;;;;;;27.63;16.20;;;14.80;99.90;;;;;;5115620;28;20202;-75
2021/07/11 02:09:02;;;;;;;29.53;15.90;;;14.80;99.90;;;;;;5115381;28;20202;-75
2021/07/11 02:11:30;;;;;;;27.70;16.27;;;14.80;99.90;;;;;;5115664;28;20200;-75
2021/07/11 02:14:04;;;;;;;30.80;17.17;;;14.80;99.90;;;;;;5115332;28;20222;-75
2021/07/11 02:16:36;;;;;;;39.47;17.03;;;14.70;99.90;;;;;;5115060;28;20635;-75
2021/07/11 02:19:05;;;;;;;28.57;16.47;;;14.60;99.90;;;;;;5104496;28;20192;-75
2021/07/11 02:21:39;;;;;;;37.30;16.43;;;14.60;99.90;;;;;;5074457;28;20199;-75
2021/07/11 02:24:06;;;;;;;30.80;17.10;;;14.60;99.90;;;;;;5074260;28;20227;-75
2021/07/11 02:26:36;;;;;;;29.63;16.47;;;14.50;99.90;;;;;;5074709;28;20639;-75
2021/07/11 02:29:05;;;;;;;30.27;16.43;;;14.40;99.90;;;;;;5074341;28;20196;-74
2021/07/11 02:31:36;;;;;;;26.53;16.40;;;14.40;99.90;;;;;;5074226;28;20203;-75
2021/07/11 02:34:05;;;;;;;28.13;15.53;;;14.40;99.90;;;;;;5075096;28;20635;-75
2021/07/11 02:36:33;;;;;;;26.67;15.70;;;14.40;99.90;;;;;;5073924;28;20777;-75
2021/07/11 02:39:06;;;;;;;64.40;17.70;;;14.40;99.90;;;;;;5074070;28;20297;-75
2021/07/11 02:41:34;;;;;;;30.97;15.43;;;14.40;99.90;;;;;;5074387;28;20233;-74
2021/07/11 02:44:05;;;;;;;28.70;15.87;;;14.30;99.90;;;;;;5073946;28;20236;-75
2021/07/11 02:46:37;;;;;;;30.60;15.93;;;14.30;99.90;;;;;;5074088;28;20203;-75
2021/07/11 02:49:09;;;;;;;32.57;15.90;;;14.30;99.90;;;;;;5074203;28;20278;-75
2021/07/11 02:51:40;;;;;;;33.03;16.80;;;14.40;99.90;;;;;;5074101;28;20210;-75
2021/07/11 02:54:08;;;;;;;35.60;17.50;;;14.40;99.90;;;;;;5073841;28;20651;-75
2021/07/11 02:56:39;;;;;;;29.50;16.13;;;14.40;99.90;;;;;;5073997;28;20192;-75
2021/07/11 02:59:09;;;;;;;29.33;15.63;;;14.40;99.90;;;;;;5073883;28;20192;-75
2021/07/11 03:01:38;;;;;;;29.23;15.57;;;14.40;99.90;;;;;;5076518;28;20201;-75
2021/07/11 03:04:06;;;;;;;32.93;16.63;;;14.50;99.90;;;;;;5093828;28;20228;-75
2021/07/11 03:06:34;;;;;;;32.63;16.43;;;14.40;99.90;;;;;;5093953;28;20195;-75
2021/07/11 03:09:02;;;;;;;27.70;15.03;;;14.30;99.90;;;;;;5094041;28;20217;-74
2021/07/11 03:11:29;;;;;;;29.63;16.20;;;14.30;99.90;;;;;;5093767;28;20655;-75
2021/07/11 03:13:58;;;;;;;30.73;16.17;;;14.30;99.90;;;;;;5093826;28;20201;-75
2021/07/11 03:16:26;;;;;;;28.07;15.37;;;14.20;99.90;;;;;;5093774;28;20191;-75
2021/07/11 03:18:55;;;;;;;31.10;16.13;;;14.20;99.90;;;;;;5094064;28;20195;-75
2021/07/11 03:21:25;;;;;;;30.43;15.13;;;14.10;99.90;;;;;;5093766;28;20289;-75
2021/07/11 03:23:53;;;;;;;26.80;15.47;;;14.20;99.90;;;;;;5093466;28;20310;-74
2021/07/11 03:26:21;;;;;;;26.93;14.60;;;14.20;99.90;;;;;;5093195;28;20190;-74
2021/07/11 03:28:49;;;;;;;27.73;14.20;;;14.00;99.90;;;;;;5093271;28;20302;-74
2021/07/11 03:31:17;;;;;;;22.80;13.80;;;13.70;99.90;;;;;;5073304;28;20203;-75
2021/07/11 03:33:47;;;;;;;22.17;13.57;;;13.70;99.90;;;;;;5073064;28;20261;-75
2021/07/11 03:36:16;;;;;;;29.00;14.50;;;13.80;99.90;;;;;;5073269;28;20202;-75
2021/07/11 03:38:48;;;;;;;28.30;14.83;;;13.90;99.90;;;;;;5089452;28;20197;-75
2021/07/11 03:41:18;;;;;;;27.83;15.13;;;14.00;99.90;;;;;;5093531;28;20195;-74
2021/07/11 03:43:53;;;;;;;30.43;15.73;;;14.00;99.90;;;;;;5093239;28;20314;-74
2021/07/11 03:46:22;;;;;;;32.20;16.13;;;14.00;99.90;;;;;;5093350;28;20209;-74
2021/07/11 03:48:56;;;;;;;29.20;15.63;;;14.10;99.90;;;;;;5091243;28;20556;-74
2021/07/11 03:51:25;;;;;;;33.00;15.63;;;14.10;99.90;;;;;;5072483;28;20549;-74
2021/07/11 03:53:56;;;;;;;33.07;15.90;;;14.00;99.90;;;;;;5073014;28;20198;-74
2021/07/11 03:56:27;;;;;;;39.90;17.20;;;14.10;99.90;;;;;;5072841;28;20196;-74
2021/07/11 03:58:56;;;;;;;34.50;16.47;;;14.00;99.90;;;;;;5073027;28;20211;-74
2021/07/11 04:01:25;;;;;;;33.63;16.03;;;13.90;99.90;;;;;;5073065;28;20214;-74
2021/07/11 04:03:54;;;;;;;37.67;16.47;;;13.90;99.90;;;;;;5072394;28;20223;-74
2021/07/11 04:06:22;;;;;;;32.20;16.50;;;13.90;99.90;;;;;;5072902;28;20644;-74
2021/07/11 04:08:50;;;;;;;35.33;16.30;;;13.90;99.90;;;;;;5072828;28;20201;-74
2021/07/11 04:11:19;;;;;;;27.53;14.30;;;13.90;99.90;;;;;;5072704;28;20290;-74
2021/07/11 04:13:46;;;;;;;28.90;15.63;;;14.00;99.90;;;;;;5088854;28;20201;-74
2021/07/11 04:16:13;;;;;;;39.67;15.90;;;14.00;99.90;;;;;;5093015;28;20230;-74
2021/07/11 04:18:44;;;;;;;29.47;15.03;;;14.00;99.90;;;;;;5092943;28;20310;-74
2021/07/11 04:21:13;;;;;;;29.83;15.47;;;14.00;99.90;;;;;;5092456;28;20633;-74
2021/07/11 04:23:43;;;;;;;33.63;15.30;;;13.90;99.90;;;;;;5083569;28;20218;-74
2021/07/11 04:26:11;;;;;;;39.70;15.97;;;14.00;99.90;;;;;;5092888;28;20199;-75
2021/07/11 04:28:43;;;;;;;36.33;16.07;;;14.10;99.90;;;;;;5092554;28;20198;-74
2021/07/11 04:31:13;;;;;;;40.47;17.50;;;14.10;99.90;;;;;;5092738;28;20666;-73
2021/07/11 04:33:40;;;;;;;37.53;16.67;;;14.30;99.90;;;;;;5092853;28;20349;-74
2021/07/11 04:36:09;;;;;;;33.97;17.50;;;14.40;99.90;;;;;;5092726;28;20271;-74
2021/07/11 04:38:36;;;;;;;35.43;16.70;;;14.50;99.90;;;;;;5092697;28;20209;-74
2021/07/11 04:41:05;;;;;;;34.33;16.63;;;14.70;99.90;;;;;;5088572;28;20763;-74
2021/07/11 04:43:31;;;;;;;36.43;17.43;;;14.80;99.90;;;;;;5092341;28;20203;-74
2021/07/11 04:46:00;;;;;;;34.20;16.90;;;14.90;99.90;;;;;;5092772;28;20286;-74
2021/07/11 04:48:27;;;;;;;34.00;16.50;;;15.00;99.90;;;;;;5092455;28;20693;-74
2021/07/11 04:50:54;;;;;;;35.93;16.83;;;15.20;99.90;;;;;;5092546;28;20693;-74
2021/07/11 04:53:21;;;;;;;32.50;16.30;;;15.30;99.90;;;;;;5092525;28;20690;-74
2021/07/11 04:55:49;;;;;;;32.80;16.00;;;15.40;99.90;;;;;;5092780;28;20281;-74
2021/07/11 04:58:16;;;;;;;36.40;16.23;;;15.50;99.90;;;;;;5093085;28;20191;-74
2021/07/11 05:00:43;;;;;;;26.17;15.53;;;15.50;99.90;;;;;;5092679;28;20686;-74
2021/07/11 05:03:11;;;;;;;34.27;16.50;;;15.60;99.90;;;;;;5096478;28;20209;-74
2021/07/11 05:05:39;;;;;;;28.93;16.30;;;15.70;99.90;;;;;;5096204;28;20322;-74
2021/07/11 05:08:06;;;;;;;31.33;16.20;;;15.90;99.90;;;;;;5078570;28;20217;-74
2021/07/11 05:10:33;;;;;;;23.63;13.57;;;16.30;99.90;;;;;;5075738;28;20191;-74
2021/07/11 05:13:00;;;;;;;25.47;14.20;;;17.10;99.90;;;;;;5075916;28;20195;-74
2021/07/11 05:15:28;;;;;;;20.90;11.97;;;18.00;99.90;;;;;;5075948;28;20201;-74
2021/07/11 05:17:55;;;;;;;17.23;11.33;;;19.00;99.90;;;;;;5075926;28;20198;-74
2021/07/11 05:20:23;;;;;;;17.77;10.70;;;20.40;99.90;;;;;;5075590;28;20299;-74
2021/07/11 05:22:50;;;;;;;15.83;10.07;;;21.40;99.90;;;;;;5075678;28;20767;-74
2021/07/11 05:25:16;;;;;;;16.38;8.98;;;22.60;99.90;;;;;;5078473;28;20241;-73
2021/07/11 05:27:43;;;;;;;11.57;8.55;;;23.90;99.90;;;;;;5095617;28;20301;-73
2021/07/11 05:30:11;;;;;;;9.55;7.95;;;24.90;99.90;;;;;;5095972;28;20218;-73
2021/07/11 05:32:38;;;;;;;10.40;7.63;;;25.90;99.90;;;;;;5094342;28;20203;-73
2021/07/11 05:35:06;;;;;;;8.75;7.47;;;26.60;99.90;;;;;;5095619;28;20195;-73
2021/07/11 05:37:35;;;;;;;9.20;7.03;;;27.20;99.90;;;;;;5095701;28;20201;-73
2021/07/11 05:40:02;;;;;;;9.18;7.00;;;27.40;99.90;;;;;;5093270;28;20194;-73
2021/07/11 05:42:29;;;;;;;7.75;6.80;;;27.30;99.90;;;;;;5075572;28;20378;-73
2021/07/11 05:44:56;;;;;;;9.82;6.97;;;27.50;99.90;;;;;;5080179;28;20214;-73
2021/07/11 05:47:22;;;;;;;9.80;7.65;;;28.20;99.90;;;;;;5095460;28;20303;-73
2021/07/11 05:49:49;;;;;;;8.60;6.38;;;28.60;99.90;;;;;;5095333;28;20742;-73
2021/07/11 05:52:16;;;;;;;9.38;6.30;;;29.30;99.90;;;;;;5094987;28;20205;-73
2021/07/11 05:54:45;;;;;;;10.13;7.28;;;30.00;99.90;;;;;;5095504;28;20559;-73
2021/07/11 05:57:11;;;;;;;10.02;6.82;;;31.00;99.90;;;;;;5094838;28;20676;-73
2021/07/11 05:59:38;;;;;;;9.82;6.82;;;31.00;99.90;;;;;;5095063;28;20656;-73
2021/07/11 06:02:05;;;;;;;8.52;7.40;;;31.30;99.90;;;;;;5095152;28;20282;-73
2021/07/11 06:04:32;;;;;;;7.72;6.72;;;31.20;99.90;;;;;;5095319;28;20225;-73
2021/07/11 06:06:59;;;;;;;8.10;7.07;;;30.60;99.90;;;;;;5093197;28;20194;-73
2021/07/11 06:09:26;;;;;;;10.15;7.00;;;30.50;99.90;;;;;;5095165;28;20285;-73
2021/07/11 06:11:54;;;;;;;10.75;7.60;;;30.60;99.90;;;;;;5094208;28;20202;-73
2021/07/11 06:14:21;;;;;;;12.45;7.45;;;30.10;99.90;;;;;;5094808;28;20294;-74
2021/07/11 06:16:48;;;;;;;11.18;7.43;;;30.40;99.90;;;;;;5094487;28;20285;-73
2021/07/11 06:19:16;;;;;;;11.50;7.95;;;31.00;99.90;;;;;;5094083;28;20245;-73
2021/07/11 06:21:43;;;;;;;10.50;7.32;;;31.70;99.90;;;;;;5094939;28;20639;-73
2021/07/11 06:24:10;;;;;;;8.65;6.97;;;32.50;99.90;;;;;;5094703;28;20289;-73
2021/07/11 06:26:37;;;;;;;9.85;7.00;;;33.50;99.90;;;;;;5094765;28;20215;-74
2021/07/11 06:29:05;;;;;;;11.32;7.30;;;34.50;99.90;;;;;;5094814;28;20277;-74
2021/07/11 06:31:33;;;;;;;10.13;7.15;;;35.20;99.90;;;;;;5094474;28;20227;-74
2021/07/11 06:33:59;;;;;;;11.00;7.07;;;35.90;99.90;;;;;;5094649;28;20194;-74
2021/07/11 06:36:27;;;;;;;9.55;7.00;;;36.40;99.90;;;;;;5093800;28;20294;-74
2021/07/11 06:38:54;;;;;;;9.60;7.50;;;37.00;99.90;;;;;;5094587;28;20197;-74
2021/07/11 06:41:21;;;;;;;9.35;6.57;;;36.90;99.90;;;;;;5094077;28;20187;-74
2021/07/11 06:43:48;;;;;;;10.02;6.68;;;37.10;99.90;;;;;;5092951;28;20195;-74
2021/07/11 06:46:16;;;;;;;8.15;6.32;;;37.80;99.90;;;;;;5094236;28;20695;-74
2021/07/11 06:48:43;;;;;;;8.30;5.65;;;38.10;99.90;;;;;;5094141;28;20289;-74
2021/07/11 06:51:10;;;;;;;7.40;5.68;;;37.90;99.90;;;;;;5093617;28;20199;-74
2021/07/11 06:53:38;;;;;;;7.15;5.40;;;37.20;99.90;;;;;;5094088;28;20289;-75
2021/07/11 06:56:05;;;;;;;5.70;4.80;;;37.30;99.90;;;;;;5093985;28;20230;-74
2021/07/11 06:58:32;;;;;;;8.20;5.00;;;38.10;99.90;;;;;;5094062;28;20663;-75
2021/07/11 07:00:59;;;;;;;8.60;5.47;;;38.90;99.90;;;;;;5094302;28;20199;-75
2021/07/11 07:03:28;;;;;;;6.82;4.55;;;39.40;97.90;;;;;;5094383;28;20281;-75
2021/07/11 07:05:55;;;;;;;6.53;4.47;;;39.40;96.10;;;;;;5094465;28;20223;-75
2021/07/11 07:08:24;;;;;;;5.55;4.20;;;39.20;95.70;;;;;;5094002;28;20310;-75
2021/07/11 07:10:50;;;;;;;5.97;3.95;;;39.50;96.60;;;;;;5086421;28;20199;-75
2021/07/11 07:13:17;;;;;;;8.13;4.53;;;39.90;95.00;;;;;;5073937;28;20205;-75
2021/07/11 07:15:44;;;;;;;6.10;5.03;;;38.40;95.50;;;;;;5073704;28;20563;-75
2021/07/11 07:18:11;;;;;;;9.00;5.10;;;36.40;96.80;;;;;;5073564;28;20639;-75
2021/07/11 07:20:39;;;;;;;6.32;5.70;;;34.50;99.20;;;;;;5085702;28;20197;-74
2021/07/11 07:23:07;;;;;;;6.88;5.85;;;33.10;99.40;;;;;;5092818;28;20281;-75
2021/07/11 07:25:34;;;;;;;5.63;5.05;;;32.30;99.90;;;;;;5089942;28;20214;-75
2021/07/11 07:28:01;;;;;;;8.43;5.55;;;32.90;99.90;;;;;;5073300;28;20242;-75
2021/07/11 07:30:30;;;;;;;8.00;6.20;;;33.00;99.90;;;;;;5073471;28;20231;-74
2021/07/11 07:32:57;;;;;;;6.82;5.60;;;33.40;99.90;;;;;;5098051;28;20198;-75
2021/07/11 07:35:24;;;;;;;5.10;4.60;;;34.30;99.90;;;;;;5113901;28;20277;-75
2021/07/11 07:37:52;;;;;;;7.32;5.40;;;34.60;99.90;;;;;;5087511;28;20198;-75
2021/07/11 07:40:20;;;;;;;6.32;5.50;;;34.70;99.90;;;;;;5086752;28;20282;-75
2021/07/11 07:42:48;;;;;;;6.80;5.55;;;34.70;99.90;;;;;;5080723;28;20207;-75
2021/07/11 07:45:16;;;;;;;6.00;5.30;;;34.00;99.90;;;;;;5083985;28;20229;-75
2021/07/11 07:47:43;;;;;;;5.97;5.18;;;34.30;99.90;;;;;;5085195;28;20223;-76
2021/07/11 07:50:13;;;;;;;5.80;5.18;;;35.30;99.90;;;;;;5084749;28;20231;-76
2021/07/11 07:52:40;;;;;;;6.10;4.70;;;37.20;99.90;;;;;;5092849;28;20209;-75
2021/07/11 07:55:09;;;;;;;4.32;3.67;;;38.60;99.10;;;;;;5092819;28;20554;-75
2021/07/11 07:57:37;;;;;;;3.60;3.17;;;37.40;96.60;;;;;;5093446;28;20283;-76
2021/07/11 08:00:05;;;;;;;3.83;3.47;;;35.40;97.40;;;;;;5093382;28;20197;-76
2021/07/11 08:02:32;;;;;;;4.82;3.95;;;33.20;99.00;;;;;;5093327;28;20237;-76
2021/07/11 08:04:59;;;;;;;4.15;3.78;;;31.80;99.90;;;;;;5092922;28;20345;-76
2021/07/11 08:07:26;;;;;;;4.57;4.18;;;30.80;99.90;;;;;;5092679;28;20560;-76
2021/07/11 08:09:53;;;;;;;6.28;4.00;;;30.30;99.90;;;;;;5072578;28;20199;-75
2021/07/11 08:12:21;;;;;;;4.55;3.45;;;31.80;99.90;;;;;;5072972;28;20195;-76
2021/07/11 08:14:50;;;;;;;3.10;2.80;;;34.20;99.90;;;;;;5073052;28;20195;-76
2021/07/11 08:17:17;;;;;;;3.30;2.97;;;34.30;99.90;;;;;;5073044;28;20286;-76
2021/07/11 08:19:44;;;;;;;4.05;3.15;;;35.00;99.90;;;;;;5072355;28;20280;-76
2021/07/11 08:22:13;;;;;;;3.72;3.13;;;35.90;99.90;;;;;;5071960;28;20571;-76
2021/07/11 08:24:39;;;;;;;4.85;3.05;;;36.00;99.80;;;;;;5072705;28;20290;-76
2021/07/11 08:27:07;;;;;;;4.00;3.38;;;36.10;98.40;;;;;;5071950;28;20303;-76
2021/07/11 08:29:36;;;;;;;4.38;3.20;;;35.80;98.90;;;;;;5072914;28;20195;-76
2021/07/11 08:32:03;;;;;;;4.00;3.60;;;35.70;98.60;;;;;;5072606;28;20380;-76
2021/07/11 08:34:30;;;;;;;4.43;3.42;;;35.00;98.10;;;;;;5072677;28;20199;-76
2021/07/11 08:36:59;;;;;;;4.00;3.70;;;34.40;98.80;;;;;;5075732;28;20202;-76
2021/07/11 08:39:27;;;;;;;5.85;3.97;;;33.50;99.90;;;;;;5085008;28;20253;-76
2021/07/11 08:41:56;;;;;;;5.63;5.13;;;32.10;99.90;;;;;;5096852;28;20210;-76
2021/07/11 08:44:23;;;;;;;7.38;6.05;;;31.20;99.90;;;;;;5096880;28;20199;-76
2021/07/11 08:46:52;;;;;;;7.35;6.30;;;30.30;99.90;;;;;;5096138;28;20694;-76
2021/07/11 08:49:19;;;;;;;6.60;5.82;;;29.50;99.90;;;;;;5079750;28;20689;-76
2021/07/11 08:51:46;;;;;;;5.97;5.22;;;28.90;99.90;;;;;;5076464;28;20294;-76
2021/07/11 08:54:15;;;;;;;8.15;5.30;;;27.90;99.90;;;;;;5076293;28;20762;-75
2021/07/11 08:56:42;;;;;;;5.50;5.00;;;27.60;99.90;;;;;;5076260;28;20206;-75
2021/07/11 08:59:09;;;;;;;5.22;4.45;;;27.90;99.90;;;;;;5075588;28;20195;-76
2021/07/11 09:01:36;;;;;;;4.50;4.10;;;28.00;99.90;;;;;;5092433;28;20197;-76
2021/07/11 09:04:07;;;;;;;5.38;4.72;;;27.30;99.90;;;;;;5095998;28;20214;-76
2021/07/11 09:06:45;;;;;;;4.70;4.25;;;27.30;99.90;;;;;;5096432;28;20330;-76
2021/07/11 09:09:13;;;;;;;5.28;4.43;;;26.90;99.90;;;;;;5096042;28;20294;-76
2021/07/11 09:11:47;;;;;;;4.35;3.95;;;26.50;99.90;;;;;;5096411;28;20283;-78
2021/07/11 09:14:20;;;;;;;4.90;4.35;;;26.20;99.90;;;;;;5096141;28;20281;-78
2021/07/11 09:16:47;;;;;;;4.50;3.90;;;25.70;99.90;;;;;;5096393;28;20195;-78
2021/07/11 09:19:24;;;;;;;4.15;3.72;;;25.60;99.90;;;;;;5096372;28;20294;-78
2021/07/11 09:21:53;;;;;;;6.47;3.88;;;25.20;99.90;;;;;;5095917;28;20224;-78
2021/07/11 09:24:20;;;;;;;4.35;3.95;;;25.20;99.90;;;;;;5093913;28;20669;-79
2021/07/11 09:26:50;;;;;;;4.25;3.85;;;25.30;99.90;;;;;;5075360;28;20227;-78
2021/07/11 09:29:25;;;;;;;8.63;3.88;;;25.50;99.90;;;;;;5075531;28;20543;-78
2021/07/11 09:31:52;;;;;;;3.90;3.47;;;25.40;99.90;;;;;;5075982;28;20203;-79
2021/07/11 09:34:24;;;;;;;4.53;3.58;;;25.20;99.90;;;;;;5075798;28;20290;-78
2021/07/11 09:37:04;;;;;;;3.35;2.90;;;25.40;99.90;;;;;;5075459;28;20195;-79
2021/07/11 09:39:31;;;;;;;4.22;3.20;;;25.50;99.90;;;;;;5075766;28;20282;-78
2021/07/11 09:42:01;;;;;;;3.42;3.08;;;25.70;99.90;;;;;;5075616;28;20274;-79
2021/07/11 09:44:39;;;;;;;3.50;3.20;;;26.00;99.90;;;;;;5075672;28;20278;-79
2021/07/11 09:47:15;;;;;;;3.38;2.72;;;27.10;99.90;;;;;;5074910;28;20321;-79
2021/07/11 09:49:43;;;;;;;2.60;2.38;;;27.80;99.90;;;;;;5075318;28;20215;-79
2021/07/11 09:52:10;;;;;;;3.53;2.90;;;28.70;99.90;;;;;;5075488;28;20217;-78
2021/07/11 09:54:37;;;;;;;4.53;2.67;;;28.90;99.90;;;;;;5074782;28;20731;-76
2021/07/11 09:57:09;;;;;;;5.25;3.10;;;28.80;99.90;;;;;;5075105;28;20410;-77
2021/07/11 09:59:36;;;;;;;6.10;2.70;;;28.20;99.90;;;;;;5075146;28;20206;-77
2021/07/11 10:02:03;;;;;;;3.35;3.00;;;27.50;99.90;;;;;;5075511;28;20195;-78
2021/07/11 10:04:30;;;;;;;4.68;3.00;;;27.10;99.90;;;;;;5074789;28;20196;-79
2021/07/11 10:06:59;;;;;;;3.40;2.88;;;26.90;99.90;;;;;;5075000;28;20318;-78
2021/07/11 10:09:27;;;;;;;3.17;2.83;;;27.00;99.90;;;;;;5074894;28;20199;-78
2021/07/11 10:11:55;;;;;;;3.42;2.50;;;27.40;99.90;;;;;;5075089;28;20276;-78
2021/07/11 10:14:21;;;;;;;3.60;2.85;;;28.60;99.90;;;;;;5075080;28;20253;-80
2021/07/11 10:16:48;;;;;;;2.80;2.47;;;29.70;99.90;;;;;;5074541;28;20634;-79
2021/07/11 10:19:16;;;;;;;5.65;2.30;;;31.00;99.90;;;;;;5074762;28;20299;-79
2021/07/11 10:21:45;;;;;;;3.03;2.70;;;31.10;99.90;;;;;;5084463;28;20198;-79
2021/07/11 10:24:23;;;;;;;2.53;2.33;;;30.50;99.90;;;;;;5094593;28;20229;-77
2021/07/11 10:26:50;;;;;;;2.75;2.33;;;30.30;99.90;;;;;;5094667;28;20594;-76
2021/07/11 10:29:19;;;;;;;2.72;2.15;;;30.00;99.90;;;;;;5094678;28;20294;-77
2021/07/11 10:31:47;;;;;;;3.30;2.15;;;30.30;99.90;;;;;;5094324;28;20227;-77
2021/07/11 10:34:26;;;;;;;3.75;2.22;;;32.40;99.90;;;;;;5094504;28;20697;-76
2021/07/11 10:36:53;;;;;;;4.05;2.40;;;32.70;99.90;;;;;;5094919;28;20192;-76
2021/07/11 10:39:21;;;;;;;2.92;2.50;;;31.90;99.90;;;;;;5094053;28;20249;-76
2021/07/11 10:41:50;;;;;;;2.13;2.00;;;30.80;99.90;;;;;;5091544;28;20195;-78
2021/07/11 10:44:22;;;;;;;4.43;2.42;;;29.70;99.90;;;;;;5074385;28;20192;-80
2021/07/11 10:46:53;;;;;;;2.67;2.22;;;28.80;99.90;;;;;;5073368;28;20718;-80
2021/07/11 10:49:21;;;;;;;2.00;1.80;;;27.80;99.90;;;;;;5074367;28;20202;-79
2021/07/11 10:51:50;;;;;;;2.58;2.05;;;27.20;99.90;;;;;;5081001;28;20219;-79
2021/07/11 10:54:29;;;;;;;4.80;2.15;;;27.10;99.90;;;;;;5095248;28;20195;-79
2021/07/11 10:56:58;;;;;;;3.15;1.80;;;29.00;99.90;;;;;;5094774;28;20620;-79
2021/07/11 10:59:35;;;;;;;3.17;2.20;;;32.00;99.90;;;;;;5090917;28;20534;-79
2021/07/11 11:02:05;;;;;;;3.88;3.00;;;32.40;99.90;;;;;;5091121;28;20285;-79
2021/07/11 11:04:32;;;;;;;2.50;2.30;;;31.70;99.90;;;;;;5091075;28;20285;-80
2021/07/11 11:07:13;;;;;;;2.28;2.08;;;31.80;99.90;;;;;;5098072;28;20218;-80
2021/07/11 11:09:43;;;;;;;3.15;2.20;;;33.40;99.90;;;;;;5092544;28;20201;-77
2021/07/11 11:12:21;;;;;;;4.63;2.65;;;35.40;99.90;;;;;;5101314;28;20190;-79
2021/07/11 11:15:13;;;;;;;2.65;2.30;;;35.10;99.90;;;;;;5104938;28;20277;-79
2021/07/11 11:17:40;;;;;;;3.83;2.20;;;33.60;99.90;;;;;;5094366;28;20227;-78
2021/07/11 11:20:09;;;;;;;3.33;2.50;;;32.30;99.90;;;;;;5074182;28;20227;-78
2021/07/11 11:22:36;;;;;;;4.28;2.20;;;31.70;99.90;;;;;;5077940;28;20681;-78
2021/07/11 11:25:06;;;;;;;2.50;2.30;;;30.80;99.90;;;;;;5095007;28;20190;-78
2021/07/11 11:27:35;;;;;;;1.90;1.80;;;30.20;99.90;;;;;;5080247;28;20222;-79
2021/07/11 11:30:19;;;;;;;2.17;1.98;;;29.60;99.90;;;;;;5083618;28;20628;-78
2021/07/11 11:32:50;;;;;;;2.35;2.13;;;29.00;99.90;;;;;;5091640;28;20207;-78
2021/07/11 11:35:19;;;;;;;3.05;2.17;;;28.30;99.90;;;;;;5088134;28;20277;-78
2021/07/11 11:37:48;;;;;;;2.72;2.25;;;27.80;99.90;;;;;;5077739;28;20206;-78
2021/07/11 11:40:18;;;;;;;3.15;1.90;;;27.60;99.90;;;;;;5080152;28;20215;-78
2021/07/11 11:42:46;;;;;;;2.30;2.10;;;27.60;99.90;;;;;;5081885;28;20330;-78
2021/07/11 11:45:14;;;;;;;4.25;2.10;;;27.50;99.90;;;;;;5080469;28;20199;-78
2021/07/11 11:47:41;;;;;;;3.55;1.88;;;28.30;99.90;;;;;;5085332;28;20306;-78
2021/07/11 11:50:15;;;;;;;5.07;1.98;;;29.60;99.90;;;;;;5078157;28;20190;-78
2021/07/11 11:52:42;;;;;;;5.05;1.80;;;31.90;99.90;;;;;;5081705;28;20208;-78
2021/07/11 11:55:10;;;;;;;3.78;2.42;;;33.60;99.90;;;;;;5081154;28;20192;-78
2021/07/11 11:57:39;;;;;;;3.95;2.33;;;34.70;99.90;;;;;;5081782;28;20215;-78
2021/07/11 12:00:08;;;;;;;2.60;1.95;;;33.90;99.90;;;;;;5083207;28;20210;-78
2021/07/11 12:02:35;;;;;;;2.83;2.10;;;33.50;99.90;;;;;;5088310;28;20240;-78
2021/07/11 12:05:12;;;;;;;5.13;1.90;;;33.80;99.90;;;;;;5091802;28;20273;-79
2021/07/11 12:07:40;;;;;;;2.10;1.90;;;34.20;99.90;;;;;;5090184;28;20272;-79
2021/07/11 12:10:08;;;;;;;1.80;1.70;;;33.20;99.90;;;;;;5087159;28;20671;-79
2021/07/11 12:12:35;;;;;;;2.35;2.00;;;32.90;99.90;;;;;;5090365;28;20524;-79
2021/07/11 12:15:04;;;;;;;2.20;2.00;;;31.80;99.90;;;;;;5091092;28;20274;-78
2021/07/11 12:17:34;;;;;;;4.57;1.83;;;30.40;99.90;;;;;;5087298;28;20187;-78
2021/07/11 12:20:01;;;;;;;2.00;1.80;;;29.70;99.90;;;;;;5090898;28;20277;-79
2021/07/11 12:22:30;;;;;;;2.80;2.30;;;30.20;99.90;;;;;;5091253;28;20205;-79
2021/07/11 12:25:04;;;;;;;3.08;1.90;;;29.50;99.90;;;;;;5091527;28;20198;-78
2021/07/11 12:27:33;;;;;;;2.20;1.95;;;29.30;99.90;;;;;;5089239;28;20215;-79
2021/07/11 12:30:11;;;;;;;2.30;1.70;;;30.40;99.90;;;;;;5091099;28;20195;-79
2021/07/11 12:32:43;;;;;;;2.13;1.65;;;31.40;99.90;;;;;;5091439;28;20226;-78
2021/07/11 12:35:10;;;;;;;2.28;1.50;;;31.30;99.90;;;;;;5091086;28;20216;-78
2021/07/11 12:37:49;;;;;;;2.45;1.50;;;31.20;99.90;;;;;;5090244;28;20202;-79
2021/07/11 12:40:16;;;;;;;1.17;1.10;;;31.00;99.90;;;;;;5090257;28;20290;-79
2021/07/11 12:42:43;;;;;;;1.52;1.00;;;30.80;99.90;;;;;;5092146;28;20191;-78
2021/07/11 12:45:19;;;;;;;1.30;1.13;;;30.30;99.90;;;;;;5091191;28;20808;-79